createdAt,value
2023-05-22T00:00:23.437Z,88.24
2023-05-22T00:02:50.950Z,88.79
2023-05-22T00:05:18.508Z,89.96
2023-05-22T00:07:46.087Z,89.96
2023-05-22T00:10:12.800Z,90.37
2023-05-22T00:12:39.487Z,90.09
2023-05-22T00:15:06.356Z,90.61
2023-05-22T00:17:34.112Z,91.63
2023-05-22T00:20:05.700Z,92.32
2023-05-22T00:22:35.324Z,92.27
2023-05-22T00:25:05.745Z,91.89
2023-05-22T00:27:32.674Z,92.04
2023-05-22T00:29:59.659Z,91.62
2023-05-22T00:32:26.358Z,90.91
2023-05-22T00:34:52.919Z,91.10
2023-05-22T00:37:20.044Z,91.66
2023-05-22T00:39:46.673Z,92.03
2023-05-22T00:42:13.480Z,92.70
2023-05-22T00:44:40.065Z,92.61
2023-05-22T00:47:08.044Z,92.80
2023-05-22T00:49:34.725Z,92.69
2023-05-22T00:52:01.558Z,92.91
2023-05-22T00:54:29.000Z,93.23
2023-05-22T00:56:55.700Z,92.93
2023-05-22T00:59:22.307Z,93.41
2023-05-22T01:01:49.038Z,95.03
2023-05-22T01:04:15.957Z,95.98
2023-05-22T01:06:42.524Z,96.58
2023-05-22T01:09:11.471Z,95.67
2023-05-22T01:11:42.140Z,95.25
2023-05-22T01:14:17.477Z,94.98
2023-05-22T01:16:48.642Z,99.19
2023-05-22T01:19:31.102Z,100.00
2023-05-22T01:22:05.477Z,100.00
2023-05-22T01:24:44.213Z,100.00
2023-05-22T01:27:29.078Z,100.00
2023-05-22T01:30:02.192Z,100.00
2023-05-22T01:32:29.782Z,100.00
2023-05-22T01:34:59.415Z,100.00
2023-05-22T01:37:26.552Z,100.00
2023-05-22T01:39:53.996Z,100.00
2023-05-22T01:42:20.565Z,100.00
2023-05-22T01:44:48.263Z,100.00
2023-05-22T01:47:15.425Z,100.00
2023-05-22T01:49:42.779Z,100.00
2023-05-22T01:52:18.825Z,100.00
2023-05-22T01:54:50.203Z,100.00
2023-05-22T01:57:19.832Z,100.00
2023-05-22T01:59:54.476Z,100.00
2023-05-22T02:02:21.933Z,100.00
2023-05-22T02:05:09.819Z,100.00
2023-05-22T02:07:37.916Z,100.00
2023-05-22T02:10:05.464Z,100.00
2023-05-22T02:12:32.016Z,99.90
2023-05-22T02:14:58.524Z,100.00
2023-05-22T02:17:27.521Z,100.00
2023-05-22T02:19:54.045Z,100.00
2023-05-22T02:22:20.713Z,100.00
2023-05-22T02:24:47.972Z,100.00
2023-05-22T02:27:16.847Z,100.00
2023-05-22T02:29:43.397Z,100.00
2023-05-22T02:32:10.015Z,100.00
2023-05-22T02:34:37.921Z,100.00
2023-05-22T02:37:05.615Z,100.00
2023-05-22T02:39:32.367Z,100.00
2023-05-22T02:41:58.962Z,100.00
2023-05-22T02:44:25.614Z,100.00
2023-05-22T02:46:52.346Z,100.00
2023-05-22T02:49:18.961Z,100.00
2023-05-22T02:51:47.748Z,100.00
2023-05-22T02:54:15.801Z,100.00
2023-05-22T02:56:43.157Z,100.00
2023-05-22T02:59:10.870Z,100.00
2023-05-22T03:01:38.821Z,100.00
2023-05-22T03:04:06.392Z,100.00
2023-05-22T03:06:33.017Z,100.00
2023-05-22T03:08:59.565Z,100.00
2023-05-22T03:11:26.054Z,100.00
2023-05-22T03:13:52.629Z,100.00
2023-05-22T03:16:19.687Z,100.00
2023-05-22T03:18:47.867Z,100.00
2023-05-22T03:21:14.421Z,100.00
2023-05-22T03:23:40.956Z,100.00
2023-05-22T03:26:07.482Z,100.00
2023-05-22T03:28:36.782Z,100.00
2023-05-22T03:31:03.549Z,100.00
2023-05-22T03:33:38.365Z,100.00
2023-05-22T03:36:05.220Z,100.00
2023-05-22T03:38:31.801Z,100.00
2023-05-22T03:40:58.323Z,100.00
2023-05-22T03:43:24.808Z,100.00
2023-05-22T03:45:51.424Z,100.00
2023-05-22T03:48:18.024Z,100.00
2023-05-22T03:50:44.768Z,100.00
2023-05-22T03:53:12.275Z,100.00
2023-05-22T03:55:38.751Z,100.00
2023-05-22T03:58:05.427Z,100.00
2023-05-22T04:00:33.325Z,100.00
2023-05-22T04:02:59.895Z,100.00
2023-05-22T04:05:26.592Z,100.00
2023-05-22T04:07:53.174Z,100.00
2023-05-22T04:10:22.697Z,100.00
2023-05-22T04:12:52.185Z,100.00
2023-05-22T04:15:18.708Z,100.00
2023-05-22T04:17:46.163Z,100.00
2023-05-22T04:20:12.907Z,100.00
2023-05-22T04:22:39.862Z,100.00
2023-05-22T04:25:06.626Z,100.00
2023-05-22T04:27:34.231Z,100.00
2023-05-22T04:30:02.347Z,100.00
2023-05-22T04:32:29.683Z,100.00
2023-05-22T04:34:58.395Z,100.00
2023-05-22T04:37:26.509Z,100.00
2023-05-22T04:39:58.215Z,100.00
2023-05-22T04:42:25.364Z,100.00
2023-05-22T04:44:57.995Z,100.00
2023-05-22T04:47:24.599Z,100.00
2023-05-22T04:49:51.712Z,100.00
2023-05-22T04:52:18.356Z,100.00
2023-05-22T04:54:46.689Z,100.00
2023-05-22T04:57:13.365Z,100.00
2023-05-22T04:59:40.975Z,100.00
2023-05-22T05:02:08.680Z,100.00
2023-05-22T05:04:35.993Z,100.00
2023-05-22T05:07:02.689Z,100.00
2023-05-22T05:09:29.449Z,100.00
2023-05-22T05:11:56.342Z,100.00
2023-05-22T05:14:22.990Z,100.00
2023-05-22T05:16:51.772Z,100.00
2023-05-22T05:19:21.384Z,100.00
2023-05-22T05:21:49.322Z,99.68
2023-05-22T05:24:17.546Z,98.55
2023-05-22T05:26:44.701Z,98.81
2023-05-22T05:29:12.764Z,97.59
2023-05-22T05:31:49.983Z,95.23
2023-05-22T05:34:37.947Z,93.71
2023-05-22T05:37:10.561Z,93.33
2023-05-22T05:39:37.932Z,92.15
2023-05-22T05:42:06.846Z,89.25
2023-05-22T05:44:33.401Z,87.93
2023-05-22T05:47:01.051Z,88.25
2023-05-22T05:49:28.102Z,87.18
2023-05-22T05:51:55.326Z,83.08
2023-05-22T05:54:22.600Z,83.66
2023-05-22T05:56:52.321Z,79.35
2023-05-22T05:59:18.924Z,80.48
2023-05-22T06:02:14.372Z,80.65
2023-05-22T06:04:42.097Z,79.20
2023-05-22T06:07:10.107Z,76.33
2023-05-22T06:09:41.405Z,76.07
2023-05-22T06:12:15.380Z,74.71
2023-05-22T06:14:44.656Z,74.47
2023-05-22T06:17:12.449Z,73.99
2023-05-22T06:19:42.210Z,73.78
2023-05-22T06:22:09.147Z,71.73
2023-05-22T06:24:37.870Z,67.71
2023-05-22T06:27:10.760Z,69.14
2023-05-22T06:29:37.444Z,67.23
2023-05-22T06:32:04.767Z,67.59
2023-05-22T06:34:31.382Z,66.64
2023-05-22T06:36:59.021Z,67.95
2023-05-22T06:39:31.977Z,64.25
2023-05-22T06:42:21.732Z,66.39
2023-05-22T06:45:20.665Z,61.40
2023-05-22T06:48:16.295Z,63.60
2023-05-22T06:51:03.179Z,62.32
2023-05-22T06:53:30.134Z,60.90
2023-05-22T06:55:57.344Z,61.47
2023-05-22T06:58:34.440Z,61.00
2023-05-22T07:01:03.205Z,59.17
2023-05-22T07:03:36.087Z,60.20
2023-05-22T07:06:41.823Z,57.26
2023-05-22T07:09:08.874Z,55.35
2023-05-22T07:11:38.441Z,55.92
2023-05-22T07:14:04.998Z,52.56
2023-05-22T07:16:31.758Z,54.37
2023-05-22T07:18:58.934Z,51.83
2023-05-22T07:21:26.098Z,52.96
2023-05-22T07:23:53.320Z,51.29
2023-05-22T07:26:22.453Z,50.89
2023-05-22T07:28:57.803Z,47.52
2023-05-22T07:31:24.447Z,48.46
2023-05-22T07:33:52.144Z,48.89
2023-05-22T07:36:19.149Z,44.46
2023-05-22T07:38:46.493Z,44.92
2023-05-22T07:41:13.275Z,41.56
2023-05-22T07:43:39.843Z,40.55
2023-05-22T07:46:09.360Z,41.92
2023-05-22T07:48:43.900Z,41.31
2023-05-22T07:51:10.645Z,41.31
2023-05-22T07:53:37.339Z,40.99
2023-05-22T07:56:05.192Z,43.11
2023-05-22T07:58:32.185Z,41.45
2023-05-22T08:00:59.052Z,43.18
2023-05-22T08:03:25.996Z,41.13
2023-05-22T08:05:52.808Z,41.69
2023-05-22T08:08:19.372Z,39.65
2023-05-22T08:11:01.939Z,39.37
2023-05-22T08:13:29.432Z,43.77
2023-05-22T08:16:00.727Z,40.42
2023-05-22T08:18:29.109Z,39.80
2023-05-22T08:20:56.226Z,41.56
2023-05-22T08:23:22.911Z,38.30
2023-05-22T08:25:50.254Z,38.13
2023-05-22T08:28:17.193Z,40.32
2023-05-22T08:30:43.853Z,37.47
2023-05-22T08:33:10.390Z,38.07
2023-05-22T08:35:36.944Z,43.98
2023-05-22T08:38:03.484Z,37.15
2023-05-22T08:40:40.587Z,38.89
2023-05-22T08:43:08.582Z,40.03
2023-05-22T08:45:35.144Z,38.93
2023-05-22T08:48:08.265Z,40.48
2023-05-22T08:50:41.728Z,41.93
2023-05-22T08:53:11.286Z,41.20
2023-05-22T08:55:37.913Z,39.81
2023-05-22T08:58:04.628Z,40.27
2023-05-22T09:00:31.412Z,39.58
2023-05-22T09:02:58.028Z,39.86
2023-05-22T09:05:26.833Z,39.44
2023-05-22T09:07:56.537Z,39.73
2023-05-22T09:10:25.591Z,41.37
2023-05-22T09:13:09.337Z,39.05
2023-05-22T09:15:36.526Z,38.28
2023-05-22T09:18:03.661Z,37.83
2023-05-22T09:20:33.972Z,36.04
2023-05-22T09:23:02.561Z,35.48
2023-05-22T09:25:29.130Z,37.36
2023-05-22T09:27:55.789Z,36.18
2023-05-22T09:30:22.285Z,37.97
2023-05-22T09:32:49.119Z,38.80
2023-05-22T09:35:16.339Z,35.95
2023-05-22T09:37:42.970Z,36.45
2023-05-22T09:40:12.042Z,35.49
2023-05-22T09:42:38.567Z,36.16
2023-05-22T09:45:08.382Z,37.17
2023-05-22T09:47:35.257Z,36.54
2023-05-22T09:50:07.098Z,33.04
2023-05-22T09:52:34.313Z,32.89
2023-05-22T09:55:04.928Z,34.10
2023-05-22T09:57:35.394Z,30.96
2023-05-22T10:00:04.535Z,34.20
2023-05-22T10:02:38.904Z,31.03
2023-05-22T10:05:08.110Z,32.64
2023-05-22T10:07:46.506Z,31.42
2023-05-22T10:10:15.366Z,33.04
2023-05-22T10:12:43.648Z,32.23
2023-05-22T10:15:11.087Z,31.35
2023-05-22T10:17:38.178Z,32.46
2023-05-22T10:20:07.890Z,32.01
2023-05-22T10:22:36.615Z,31.36
2023-05-22T10:25:03.371Z,34.12
2023-05-22T10:27:29.947Z,33.82
2023-05-22T10:30:15.100Z,32.85
2023-05-22T10:32:57.907Z,32.82
2023-05-22T10:35:43.358Z,33.17
2023-05-22T10:38:28.881Z,31.76
2023-05-22T10:40:55.687Z,31.15
2023-05-22T10:43:22.845Z,31.40
2023-05-22T10:45:49.380Z,30.93
2023-05-22T10:48:21.575Z,30.69
2023-05-22T10:50:54.683Z,33.10
2023-05-22T10:53:23.493Z,32.25
2023-05-22T10:55:50.002Z,31.51
2023-05-22T10:58:17.410Z,31.67
2023-05-22T11:00:44.479Z,32.27
2023-05-22T11:03:17.868Z,30.96
2023-05-22T11:05:52.260Z,31.89
2023-05-22T11:08:28.101Z,31.73
2023-05-22T11:10:55.277Z,31.30
2023-05-22T11:13:26.040Z,31.02
2023-05-22T11:15:55.709Z,31.29
2023-05-22T11:18:22.309Z,32.16
2023-05-22T11:20:48.903Z,29.31
2023-05-22T11:23:18.005Z,31.16
2023-05-22T11:25:44.830Z,33.12
2023-05-22T11:28:11.811Z,31.05
2023-05-22T11:30:38.885Z,31.01
2023-05-22T11:33:06.635Z,33.64
2023-05-22T11:35:33.341Z,31.51
2023-05-22T11:38:03.599Z,29.96
2023-05-22T11:40:30.098Z,30.62
2023-05-22T11:42:56.968Z,30.70
2023-05-22T11:45:24.066Z,31.01
2023-05-22T11:47:50.717Z,31.08
2023-05-22T11:50:29.167Z,30.09
2023-05-22T11:53:03.900Z,31.70
2023-05-22T11:55:30.481Z,32.21
2023-05-22T11:57:57.780Z,33.56
2023-05-22T12:00:24.469Z,32.59
2023-05-22T12:02:51.379Z,31.34
2023-05-22T12:05:20.267Z,33.19
2023-05-22T12:07:46.789Z,31.25
2023-05-22T12:10:14.157Z,31.35
2023-05-22T12:12:41.352Z,32.80
2023-05-22T12:15:08.163Z,32.06
2023-05-22T12:17:36.002Z,31.94
2023-05-22T12:20:02.654Z,29.11
2023-05-22T12:22:29.809Z,29.58
2023-05-22T12:24:56.466Z,31.74
2023-05-22T12:27:22.993Z,32.28
2023-05-22T12:29:49.604Z,29.83
2023-05-22T12:32:18.230Z,29.49
2023-05-22T12:34:46.119Z,31.34
2023-05-22T12:37:19.458Z,31.50
2023-05-22T12:39:55.596Z,30.53
2023-05-22T12:42:22.138Z,29.97
2023-05-22T12:44:48.668Z,29.82
2023-05-22T12:47:15.186Z,31.08
2023-05-22T12:49:41.709Z,31.84
2023-05-22T12:52:08.236Z,32.16
2023-05-22T12:54:34.750Z,31.46
2023-05-22T12:57:01.455Z,31.42
2023-05-22T12:59:27.972Z,32.12
2023-05-22T13:01:54.788Z,31.18
2023-05-22T13:04:21.598Z,30.96
2023-05-22T13:06:48.052Z,32.82
2023-05-22T13:09:16.953Z,32.94
2023-05-22T13:11:43.647Z,34.76
2023-05-22T13:14:10.147Z,32.07
2023-05-22T13:16:36.825Z,31.48
2023-05-22T13:19:03.395Z,30.81
2023-05-22T13:21:29.962Z,29.81
2023-05-22T13:23:56.681Z,31.26
2023-05-22T13:26:23.162Z,32.76
2023-05-22T13:28:50.345Z,31.74
2023-05-22T13:31:16.959Z,31.94
2023-05-22T13:33:43.493Z,33.20
2023-05-22T13:36:10.053Z,33.04
2023-05-22T13:38:36.930Z,33.08
2023-05-22T13:41:03.515Z,33.47
2023-05-22T13:43:30.026Z,32.12
2023-05-22T13:45:56.827Z,31.26
2023-05-22T13:48:23.344Z,32.97
2023-05-22T13:50:49.848Z,31.95
2023-05-22T13:53:16.411Z,31.37
2023-05-22T13:55:42.884Z,30.08
2023-05-22T13:58:09.476Z,30.66
2023-05-22T14:00:36.089Z,31.87
2023-05-22T14:03:02.857Z,31.45
2023-05-22T14:05:29.443Z,31.55
2023-05-22T14:07:56.801Z,31.64
2023-05-22T14:10:23.399Z,31.93
2023-05-22T14:12:50.161Z,32.02
2023-05-22T14:15:17.833Z,31.87
2023-05-22T14:17:44.512Z,32.53
2023-05-22T14:20:11.350Z,31.41
2023-05-22T14:22:55.234Z,32.44
2023-05-22T14:25:23.550Z,32.81
2023-05-22T14:27:50.077Z,32.70
2023-05-22T14:30:16.786Z,33.26
2023-05-22T14:32:43.433Z,32.59
2023-05-22T14:35:10.129Z,33.10
2023-05-22T14:37:36.772Z,33.89
2023-05-22T14:40:03.749Z,33.41
2023-05-22T14:42:30.231Z,33.23
2023-05-22T14:44:57.401Z,34.46
2023-05-22T14:47:23.896Z,34.00
2023-05-22T14:49:50.634Z,33.43
2023-05-22T14:52:17.161Z,32.36
2023-05-22T14:54:43.780Z,33.67
2023-05-22T14:57:10.278Z,33.63
2023-05-22T14:59:36.786Z,32.81
2023-05-22T15:02:03.446Z,32.88
2023-05-22T15:04:30.190Z,32.70
2023-05-22T15:06:56.715Z,32.02
2023-05-22T15:09:23.447Z,31.92
2023-05-22T15:11:51.052Z,32.51
2023-05-22T15:14:17.933Z,32.77
2023-05-22T15:16:44.688Z,33.41
2023-05-22T15:19:11.365Z,32.84
2023-05-22T15:21:37.973Z,32.61
2023-05-22T15:24:04.606Z,33.01
2023-05-22T15:26:31.169Z,33.75
2023-05-22T15:29:03.947Z,34.08
2023-05-22T15:31:31.013Z,31.51
2023-05-22T15:33:57.716Z,32.92
2023-05-22T15:36:24.192Z,33.54
2023-05-22T15:38:50.741Z,33.60
2023-05-22T15:41:17.404Z,33.78
2023-05-22T15:43:44.566Z,33.14
2023-05-22T15:46:14.475Z,33.50
2023-05-22T15:48:41.087Z,33.88
2023-05-22T15:51:09.600Z,33.86
2023-05-22T15:53:36.143Z,35.35
2023-05-22T15:56:02.713Z,34.33
2023-05-22T15:58:30.189Z,34.35
2023-05-22T16:00:57.030Z,34.50
2023-05-22T16:03:23.736Z,34.43
2023-05-22T16:05:50.410Z,34.05
2023-05-22T16:08:17.075Z,33.36
2023-05-22T16:10:45.328Z,34.05
2023-05-22T16:13:12.038Z,33.84
2023-05-22T16:15:39.827Z,34.25
2023-05-22T16:18:07.287Z,33.81
2023-05-22T16:20:34.557Z,34.77
2023-05-22T16:23:01.446Z,35.01
2023-05-22T16:25:28.203Z,34.57
2023-05-22T16:27:54.751Z,35.50
2023-05-22T16:30:21.389Z,35.47
2023-05-22T16:32:48.450Z,35.15
2023-05-22T16:35:15.808Z,35.62
2023-05-22T16:37:42.340Z,35.02
2023-05-22T16:40:11.842Z,36.19
2023-05-22T16:42:38.510Z,35.84
2023-05-22T16:45:05.888Z,35.81
2023-05-22T16:47:33.016Z,37.25
2023-05-22T16:49:59.697Z,37.56
2023-05-22T16:52:26.295Z,37.61
2023-05-22T16:54:53.013Z,37.14
2023-05-22T16:57:19.554Z,37.53
2023-05-22T16:59:46.323Z,37.27
2023-05-22T17:02:13.593Z,37.73
2023-05-22T17:04:40.993Z,39.24
2023-05-22T17:07:07.687Z,38.84
2023-05-22T17:09:34.410Z,40.13
2023-05-22T17:12:01.129Z,39.89
2023-05-22T17:14:27.710Z,40.19
2023-05-22T17:16:55.193Z,42.10
2023-05-22T17:19:21.857Z,43.76
2023-05-22T17:21:48.482Z,45.04
2023-05-22T17:24:15.104Z,42.02
2023-05-22T17:26:41.936Z,45.54
2023-05-22T17:29:09.410Z,45.34
2023-05-22T17:31:38.887Z,44.69
2023-05-22T17:34:05.947Z,43.85
2023-05-22T17:36:32.566Z,42.32
2023-05-22T17:38:59.399Z,41.18
2023-05-22T17:41:26.457Z,42.22
2023-05-22T17:43:54.628Z,41.97
2023-05-22T17:46:21.216Z,40.92
2023-05-22T17:48:47.800Z,41.09
2023-05-22T17:51:14.328Z,40.84
2023-05-22T17:53:40.864Z,42.43
2023-05-22T17:56:07.418Z,41.93
2023-05-22T17:58:34.002Z,42.40
2023-05-22T18:01:00.618Z,42.50
2023-05-22T18:03:27.290Z,42.63
2023-05-22T18:05:53.885Z,43.69
2023-05-22T18:08:21.333Z,43.81
2023-05-22T18:10:48.327Z,43.40
2023-05-22T18:13:15.058Z,44.25
2023-05-22T18:15:41.827Z,46.87
2023-05-22T18:18:09.563Z,49.03
2023-05-22T18:20:37.765Z,51.90
2023-05-22T18:23:04.514Z,51.54
2023-05-22T18:25:30.988Z,49.79
2023-05-22T18:27:57.465Z,49.95
2023-05-22T18:30:23.970Z,49.94
2023-05-22T18:32:50.759Z,51.79
2023-05-22T18:35:17.393Z,52.29
2023-05-22T18:37:44.111Z,53.01
2023-05-22T18:40:11.450Z,53.76
2023-05-22T18:42:38.052Z,54.22
2023-05-22T18:45:06.092Z,56.06
2023-05-22T18:47:32.690Z,56.30
2023-05-22T18:49:59.322Z,51.97
2023-05-22T18:52:25.792Z,51.82
2023-05-22T18:54:52.294Z,52.04
2023-05-22T18:57:18.801Z,52.29
2023-05-22T18:59:46.171Z,52.98
2023-05-22T19:02:12.779Z,52.93
2023-05-22T19:04:39.485Z,53.95
2023-05-22T19:07:06.189Z,52.33
2023-05-22T19:09:32.752Z,52.77
2023-05-22T19:11:59.314Z,54.73
2023-05-22T19:14:25.877Z,55.20
2023-05-22T19:16:52.503Z,56.39
2023-05-22T19:19:19.159Z,59.36
2023-05-22T19:21:45.792Z,60.66
2023-05-22T19:24:12.318Z,60.86
2023-05-22T19:26:38.974Z,61.58
2023-05-22T19:29:05.640Z,63.80
2023-05-22T19:31:32.190Z,65.47
2023-05-22T19:33:58.720Z,65.26
2023-05-22T19:36:27.794Z,65.73
2023-05-22T19:38:54.322Z,64.79
2023-05-22T19:41:22.734Z,65.88
2023-05-22T19:43:49.244Z,65.49
2023-05-22T19:46:15.707Z,65.41
2023-05-22T19:48:42.245Z,65.67
2023-05-22T19:51:08.812Z,67.01
2023-05-22T19:53:35.328Z,68.95
2023-05-22T19:56:04.761Z,70.47
2023-05-22T19:58:31.266Z,69.77
2023-05-22T20:00:57.781Z,71.48
2023-05-22T20:03:24.588Z,71.44
2023-05-22T20:05:52.189Z,72.38
2023-05-22T20:08:18.882Z,72.54
2023-05-22T20:10:47.298Z,72.92
2023-05-22T20:13:13.845Z,72.59
2023-05-22T20:15:41.096Z,73.05
2023-05-22T20:18:08.390Z,72.61
2023-05-22T20:20:35.218Z,73.43
2023-05-22T20:23:01.948Z,73.71
2023-05-22T20:25:28.552Z,74.64
2023-05-22T20:27:55.055Z,73.97
2023-05-22T20:30:21.566Z,73.18
2023-05-22T20:32:48.068Z,73.90
2023-05-22T20:35:18.402Z,73.84
2023-05-22T20:37:46.142Z,75.16
2023-05-22T20:40:13.492Z,74.75
2023-05-22T20:42:42.421Z,74.30
2023-05-22T20:45:12.233Z,74.40
2023-05-22T20:47:41.007Z,73.68
2023-05-22T20:50:08.933Z,73.52
2023-05-22T20:52:37.257Z,75.28
2023-05-22T20:55:04.657Z,74.71
2023-05-22T20:57:31.411Z,75.22
2023-05-22T20:59:58.501Z,76.95
2023-05-22T21:02:25.815Z,78.74
2023-05-22T21:04:52.493Z,77.66
2023-05-22T21:07:19.570Z,78.47
2023-05-22T21:09:46.157Z,78.53
2023-05-22T21:12:12.773Z,78.78
2023-05-22T21:14:40.215Z,79.25
2023-05-22T21:17:07.070Z,78.33
2023-05-22T21:19:33.779Z,78.85
2023-05-22T21:22:00.330Z,78.47
2023-05-22T21:24:26.902Z,78.23
2023-05-22T21:26:53.413Z,78.58
2023-05-22T21:29:19.900Z,78.89
2023-05-22T21:31:46.494Z,79.44
2023-05-22T21:34:13.114Z,79.75
2023-05-22T21:36:39.605Z,80.62
2023-05-22T21:39:06.160Z,80.50
2023-05-22T21:41:32.727Z,80.82
2023-05-22T21:43:59.445Z,82.10
2023-05-22T21:46:26.314Z,81.80
2023-05-22T21:48:53.831Z,80.48
2023-05-22T21:51:20.444Z,80.87
2023-05-22T21:53:46.903Z,81.16
2023-05-22T21:56:13.471Z,80.87
2023-05-22T21:58:39.986Z,81.92
2023-05-22T22:01:06.658Z,80.80
2023-05-22T22:03:33.223Z,81.63
2023-05-22T22:05:59.859Z,83.25
2023-05-22T22:08:28.308Z,82.91
2023-05-22T22:10:55.247Z,82.82
2023-05-22T22:13:21.842Z,81.98
2023-05-22T22:15:48.357Z,81.40
2023-05-22T22:18:15.788Z,81.97
2023-05-22T22:20:44.884Z,82.92
2023-05-22T22:23:12.262Z,83.26
2023-05-22T22:25:39.271Z,83.26
2023-05-22T22:28:06.174Z,83.27
2023-05-22T22:30:32.741Z,83.60
2023-05-22T22:32:59.666Z,83.40
2023-05-22T22:35:29.063Z,83.28
2023-05-22T22:37:56.008Z,83.59
2023-05-22T22:40:24.272Z,83.17
2023-05-22T22:42:51.894Z,84.40
2023-05-22T22:45:18.403Z,85.34
2023-05-22T22:47:45.831Z,85.04
2023-05-22T22:50:12.663Z,84.09
2023-05-22T22:52:41.664Z,85.03
2023-05-22T22:55:09.026Z,85.50
2023-05-22T22:57:36.039Z,87.00
2023-05-22T23:00:02.512Z,87.23
2023-05-22T23:02:29.100Z,87.85
2023-05-22T23:04:55.853Z,88.77
2023-05-22T23:07:24.080Z,88.69
2023-05-22T23:09:50.642Z,88.52
2023-05-22T23:12:17.206Z,88.02
2023-05-22T23:14:44.840Z,87.32
2023-05-22T23:17:11.352Z,88.39
2023-05-22T23:19:37.832Z,88.93
2023-05-22T23:22:04.492Z,88.40
2023-05-22T23:24:31.076Z,89.49
2023-05-22T23:26:57.585Z,89.31
2023-05-22T23:29:24.111Z,89.41
2023-05-22T23:31:50.821Z,89.33
2023-05-22T23:34:17.351Z,89.65
2023-05-22T23:36:43.921Z,89.23
2023-05-22T23:39:10.537Z,89.75
2023-05-22T23:41:37.084Z,90.17
2023-05-22T23:44:03.940Z,91.64
2023-05-22T23:46:30.539Z,92.44
2023-05-22T23:48:57.027Z,92.60
2023-05-22T23:51:23.534Z,91.65
2023-05-22T23:53:50.072Z,90.50
2023-05-22T23:56:16.992Z,90.36
2023-05-22T23:58:43.558Z,90.38
